sensor_id;sensor_type;location;lat;lon;timestamp;P1;durP1;ratioP1;P2;durP2;ratioP2
22894;SDS011;11614;52.494;6.976;2023-06-26T00:01:18;11.25;;;9.70;;
22894;SDS011;11614;52.494;6.976;2023-06-26T00:03:47;12.68;;;9.32;;
22894;SDS011;11614;52.494;6.976;2023-06-26T00:06:13;10.77;;;8.30;;
22894;SDS011;11614;52.494;6.976;2023-06-26T00:08:39;9.27;;;8.35;;
22894;SDS011;11614;52.494;6.976;2023-06-26T00:11:06;10.73;;;8.90;;
22894;SDS011;11614;52.494;6.976;2023-06-26T00:13:33;10.30;;;9.02;;
22894;SDS011;11614;52.494;6.976;2023-06-26T00:15:59;12.00;;;9.10;;
22894;SDS011;11614;52.494;6.976;2023-06-26T00:18:28;10.98;;;9.00;;
22894;SDS011;11614;52.494;6.976;2023-06-26T00:20:54;10.15;;;8.82;;
22894;SDS011;11614;52.494;6.976;2023-06-26T00:23:19;12.32;;;8.50;;
22894;SDS011;11614;52.494;6.976;2023-06-26T00:25:46;10.52;;;9.07;;
22894;SDS011;11614;52.494;6.976;2023-06-26T00:28:12;9.10;;;7.80;;
22894;SDS011;11614;52.494;6.976;2023-06-26T00:30:38;9.18;;;7.88;;
22894;SDS011;11614;52.494;6.976;2023-06-26T00:33:04;13.55;;;9.02;;
22894;SDS011;11614;52.494;6.976;2023-06-26T00:35:30;11.50;;;8.88;;
22894;SDS011;11614;52.494;6.976;2023-06-26T00:37:56;9.15;;;7.97;;
22894;SDS011;11614;52.494;6.976;2023-06-26T00:40:22;9.73;;;8.15;;
22894;SDS011;11614;52.494;6.976;2023-06-26T00:42:48;8.85;;;7.95;;
22894;SDS011;11614;52.494;6.976;2023-06-26T00:45:14;9.93;;;8.30;;
22894;SDS011;11614;52.494;6.976;2023-06-26T00:47:40;11.90;;;8.48;;
22894;SDS011;11614;52.494;6.976;2023-06-26T00:50:06;11.30;;;8.63;;
22894;SDS011;11614;52.494;6.976;2023-06-26T00:52:32;9.95;;;7.63;;
22894;SDS011;11614;52.494;6.976;2023-06-26T00:54:58;12.23;;;8.50;;
22894;SDS011;11614;52.494;6.976;2023-06-26T00:57:24;10.63;;;7.60;;
22894;SDS011;11614;52.494;6.976;2023-06-26T00:59:50;9.70;;;8.43;;
22894;SDS011;11614;52.494;6.976;2023-06-26T01:02:16;12.68;;;8.85;;
22894;SDS011;11614;52.494;6.976;2023-06-26T01:04:45;9.73;;;8.63;;
22894;SDS011;11614;52.494;6.976;2023-06-26T01:07:12;11.05;;;9.10;;
22894;SDS011;11614;52.494;6.976;2023-06-26T01:09:38;12.27;;;8.80;;
22894;SDS011;11614;52.494;6.976;2023-06-26T01:12:04;10.98;;;9.23;;
22894;SDS011;11614;52.494;6.976;2023-06-26T01:14:30;12.45;;;9.68;;
22894;SDS011;11614;52.494;6.976;2023-06-26T01:16:57;13.05;;;9.15;;
22894;SDS011;11614;52.494;6.976;2023-06-26T01:19:24;10.80;;;8.48;;
22894;SDS011;11614;52.494;6.976;2023-06-26T01:21:56;14.95;;;10.45;;
22894;SDS011;11614;52.494;6.976;2023-06-26T01:24:23;10.88;;;9.35;;
22894;SDS011;11614;52.494;6.976;2023-06-26T01:26:52;11.68;;;8.95;;
22894;SDS011;11614;52.494;6.976;2023-06-26T01:29:19;11.75;;;9.75;;
22894;SDS011;11614;52.494;6.976;2023-06-26T01:31:46;11.90;;;9.68;;
22894;SDS011;11614;52.494;6.976;2023-06-26T01:34:15;13.50;;;10.55;;
22894;SDS011;11614;52.494;6.976;2023-06-26T01:36:41;12.52;;;9.57;;
22894;SDS011;11614;52.494;6.976;2023-06-26T01:39:07;12.93;;;9.20;;
22894;SDS011;11614;52.494;6.976;2023-06-26T01:41:33;11.32;;;9.52;;
22894;SDS011;11614;52.494;6.976;2023-06-26T01:46:27;13.57;;;9.52;;
22894;SDS011;11614;52.494;6.976;2023-06-26T01:49:04;11.15;;;9.77;;
22894;SDS011;11614;52.494;6.976;2023-06-26T01:52:32;13.93;;;10.32;;
22894;SDS011;11614;52.494;6.976;2023-06-26T01:54:47;10.93;;;9.13;;
22894;SDS011;11614;52.494;6.976;2023-06-26T01:57:14;13.60;;;10.57;;
22894;SDS011;11614;52.494;6.976;2023-06-26T01:59:43;13.90;;;10.18;;
22894;SDS011;11614;52.494;6.976;2023-06-26T02:02:10;14.25;;;10.15;;
22894;SDS011;11614;52.494;6.976;2023-06-26T02:04:36;12.88;;;10.02;;
22894;SDS011;11614;52.494;6.976;2023-06-26T02:07:02;14.02;;;10.20;;
22894;SDS011;11614;52.494;6.976;2023-06-26T02:09:28;15.40;;;10.93;;
22894;SDS011;11614;52.494;6.976;2023-06-26T02:11:54;15.38;;;10.73;;
22894;SDS011;11614;52.494;6.976;2023-06-26T02:14:20;13.90;;;10.32;;
22894;SDS011;11614;52.494;6.976;2023-06-26T02:16:46;13.05;;;10.13;;
22894;SDS011;11614;52.494;6.976;2023-06-26T02:19:12;10.75;;;9.35;;
22894;SDS011;11614;52.494;6.976;2023-06-26T02:21:46;15.45;;;10.35;;
22894;SDS011;11614;52.494;6.976;2023-06-26T02:24:14;14.75;;;10.85;;
22894;SDS011;11614;52.494;6.976;2023-06-26T02:26:40;13.95;;;10.23;;
22894;SDS011;11614;52.494;6.976;2023-06-26T02:29:06;13.30;;;10.77;;
22894;SDS011;11614;52.494;6.976;2023-06-26T02:31:32;13.77;;;10.50;;
22894;SDS011;11614;52.494;6.976;2023-06-26T02:33:58;12.75;;;10.15;;
22894;SDS011;11614;52.494;6.976;2023-06-26T02:36:24;13.50;;;10.80;;
22894;SDS011;11614;52.494;6.976;2023-06-26T02:38:50;13.02;;;10.35;;
22894;SDS011;11614;52.494;6.976;2023-06-26T02:41:15;15.00;;;10.38;;
22894;SDS011;11614;52.494;6.976;2023-06-26T02:43:41;15.15;;;11.23;;
22894;SDS011;11614;52.494;6.976;2023-06-26T02:46:07;14.00;;;11.23;;
22894;SDS011;11614;52.494;6.976;2023-06-26T02:48:33;16.50;;;11.25;;
22894;SDS011;11614;52.494;6.976;2023-06-26T02:50:59;12.95;;;10.68;;
22894;SDS011;11614;52.494;6.976;2023-06-26T02:53:24;13.23;;;11.15;;
22894;SDS011;11614;52.494;6.976;2023-06-26T02:55:50;17.23;;;12.15;;
22894;SDS011;11614;52.494;6.976;2023-06-26T02:58:16;14.68;;;11.15;;
22894;SDS011;11614;52.494;6.976;2023-06-26T03:00:42;17.10;;;10.90;;
22894;SDS011;11614;52.494;6.976;2023-06-26T03:03:08;13.30;;;10.65;;
22894;SDS011;11614;52.494;6.976;2023-06-26T03:05:34;12.75;;;10.48;;
22894;SDS011;11614;52.494;6.976;2023-06-26T03:07:59;14.88;;;12.65;;
22894;SDS011;11614;52.494;6.976;2023-06-26T03:10:25;13.90;;;10.65;;
22894;SDS011;11614;52.494;6.976;2023-06-26T03:12:51;14.90;;;11.95;;
22894;SDS011;11614;52.494;6.976;2023-06-26T03:15:17;14.15;;;10.57;;
22894;SDS011;11614;52.494;6.976;2023-06-26T03:17:44;14.55;;;11.45;;
22894;SDS011;11614;52.494;6.976;2023-06-26T03:20:09;13.68;;;10.25;;
22894;SDS011;11614;52.494;6.976;2023-06-26T03:22:36;14.07;;;10.50;;
22894;SDS011;11614;52.494;6.976;2023-06-26T03:25:02;17.30;;;12.10;;
22894;SDS011;11614;52.494;6.976;2023-06-26T03:27:28;17.90;;;12.32;;
22894;SDS011;11614;52.494;6.976;2023-06-26T03:29:53;16.25;;;11.35;;
22894;SDS011;11614;52.494;6.976;2023-06-26T03:32:19;17.42;;;13.98;;
22894;SDS011;11614;52.494;6.976;2023-06-26T03:34:45;15.23;;;11.95;;
22894;SDS011;11614;52.494;6.976;2023-06-26T03:37:11;16.33;;;12.68;;
22894;SDS011;11614;52.494;6.976;2023-06-26T03:39:36;17.48;;;11.98;;
22894;SDS011;11614;52.494;6.976;2023-06-26T03:42:02;18.35;;;12.45;;
22894;SDS011;11614;52.494;6.976;2023-06-26T03:44:28;15.85;;;12.15;;
22894;SDS011;11614;52.494;6.976;2023-06-26T03:46:54;16.15;;;11.90;;
22894;SDS011;11614;52.494;6.976;2023-06-26T03:49:20;15.85;;;11.55;;
22894;SDS011;11614;52.494;6.976;2023-06-26T03:51:46;16.52;;;11.95;;
22894;SDS011;11614;52.494;6.976;2023-06-26T03:54:11;14.38;;;10.90;;
22894;SDS011;11614;52.494;6.976;2023-06-26T03:56:37;16.63;;;13.02;;
22894;SDS011;11614;52.494;6.976;2023-06-26T03:59:03;19.15;;;12.40;;
22894;SDS011;11614;52.494;6.976;2023-06-26T04:01:29;17.02;;;11.85;;
22894;SDS011;11614;52.494;6.976;2023-06-26T04:03:54;17.27;;;12.77;;
22894;SDS011;11614;52.494;6.976;2023-06-26T04:06:20;15.30;;;12.18;;
22894;SDS011;11614;52.494;6.976;2023-06-26T04:08:46;19.10;;;12.93;;
22894;SDS011;11614;52.494;6.976;2023-06-26T04:11:13;16.48;;;11.32;;
22894;SDS011;11614;52.494;6.976;2023-06-26T04:13:38;16.15;;;11.85;;
22894;SDS011;11614;52.494;6.976;2023-06-26T04:16:04;15.82;;;11.68;;
22894;SDS011;11614;52.494;6.976;2023-06-26T04:18:31;17.27;;;11.82;;
22894;SDS011;11614;52.494;6.976;2023-06-26T04:21:04;16.65;;;12.32;;
22894;SDS011;11614;52.494;6.976;2023-06-26T04:23:34;16.42;;;12.18;;
22894;SDS011;11614;52.494;6.976;2023-06-26T04:26:00;20.02;;;13.75;;
22894;SDS011;11614;52.494;6.976;2023-06-26T04:28:27;14.27;;;11.43;;
22894;SDS011;11614;52.494;6.976;2023-06-26T04:30:53;15.52;;;12.10;;
22894;SDS011;11614;52.494;6.976;2023-06-26T04:33:19;15.93;;;12.45;;
22894;SDS011;11614;52.494;6.976;2023-06-26T04:35:45;14.02;;;10.30;;
22894;SDS011;11614;52.494;6.976;2023-06-26T04:38:13;15.30;;;11.15;;
22894;SDS011;11614;52.494;6.976;2023-06-26T04:40:40;14.15;;;10.85;;
22894;SDS011;11614;52.494;6.976;2023-06-26T04:43:05;16.17;;;12.32;;
22894;SDS011;11614;52.494;6.976;2023-06-26T04:45:31;16.60;;;12.30;;
22894;SDS011;11614;52.494;6.976;2023-06-26T04:47:57;15.02;;;11.75;;
22894;SDS011;11614;52.494;6.976;2023-06-26T04:50:24;13.25;;;10.13;;
22894;SDS011;11614;52.494;6.976;2023-06-26T04:52:51;12.98;;;10.93;;
22894;SDS011;11614;52.494;6.976;2023-06-26T04:55:17;16.40;;;12.65;;
22894;SDS011;11614;52.494;6.976;2023-06-26T04:57:42;15.15;;;11.20;;
22894;SDS011;11614;52.494;6.976;2023-06-26T05:00:09;14.00;;;10.32;;
22894;SDS011;11614;52.494;6.976;2023-06-26T05:02:36;13.18;;;10.10;;
22894;SDS011;11614;52.494;6.976;2023-06-26T05:05:02;15.40;;;10.32;;
22894;SDS011;11614;52.494;6.976;2023-06-26T05:07:27;14.02;;;10.20;;
22894;SDS011;11614;52.494;6.976;2023-06-26T05:09:53;13.02;;;9.27;;
22894;SDS011;11614;52.494;6.976;2023-06-26T05:12:20;10.55;;;8.73;;
22894;SDS011;11614;52.494;6.976;2023-06-26T05:14:46;12.70;;;9.98;;
22894;SDS011;11614;52.494;6.976;2023-06-26T05:17:13;11.60;;;9.15;;
22894;SDS011;11614;52.494;6.976;2023-06-26T05:19:39;14.35;;;10.20;;
22894;SDS011;11614;52.494;6.976;2023-06-26T05:22:05;13.45;;;8.77;;
22894;SDS011;11614;52.494;6.976;2023-06-26T05:24:32;11.60;;;9.50;;
22894;SDS011;11614;52.494;6.976;2023-06-26T05:27:02;7.45;;;6.15;;
22894;SDS011;11614;52.494;6.976;2023-06-26T05:29:30;6.15;;;5.32;;
22894;SDS011;11614;52.494;6.976;2023-06-26T05:31:57;9.98;;;6.50;;
22894;SDS011;11614;52.494;6.976;2023-06-26T05:34:23;9.85;;;6.75;;
22894;SDS011;11614;52.494;6.976;2023-06-26T05:36:50;9.55;;;6.25;;
22894;SDS011;11614;52.494;6.976;2023-06-26T05:39:16;11.57;;;6.03;;
22894;SDS011;11614;52.494;6.976;2023-06-26T05:41:46;9.82;;;6.97;;
22894;SDS011;11614;52.494;6.976;2023-06-26T05:44:22;7.90;;;6.22;;
22894;SDS011;11614;52.494;6.976;2023-06-26T05:46:48;11.82;;;6.95;;
22894;SDS011;11614;52.494;6.976;2023-06-26T05:49:14;11.75;;;7.35;;
22894;SDS011;11614;52.494;6.976;2023-06-26T05:51:40;13.02;;;8.18;;
22894;SDS011;11614;52.494;6.976;2023-06-26T05:54:06;10.70;;;8.15;;
22894;SDS011;11614;52.494;6.976;2023-06-26T05:56:32;10.65;;;7.68;;
22894;SDS011;11614;52.494;6.976;2023-06-26T05:58:58;11.63;;;8.18;;
22894;SDS011;11614;52.494;6.976;2023-06-26T06:01:24;13.05;;;8.82;;
22894;SDS011;11614;52.494;6.976;2023-06-26T06:03:50;10.25;;;5.55;;
22894;SDS011;11614;52.494;6.976;2023-06-26T06:06:16;11.93;;;7.15;;
22894;SDS011;11614;52.494;6.976;2023-06-26T06:08:41;18.20;;;7.85;;
22894;SDS011;11614;52.494;6.976;2023-06-26T06:11:07;10.20;;;6.30;;
22894;SDS011;11614;52.494;6.976;2023-06-26T06:13:33;10.52;;;7.22;;
22894;SDS011;11614;52.494;6.976;2023-06-26T06:15:59;8.25;;;5.25;;
22894;SDS011;11614;52.494;6.976;2023-06-26T06:18:24;13.02;;;6.35;;
22894;SDS011;11614;52.494;6.976;2023-06-26T06:20:50;11.60;;;7.30;;
22894;SDS011;11614;52.494;6.976;2023-06-26T06:23:16;8.48;;;5.65;;
22894;SDS011;11614;52.494;6.976;2023-06-26T06:25:42;11.02;;;6.10;;
22894;SDS011;11614;52.494;6.976;2023-06-26T06:28:08;13.48;;;7.38;;
22894;SDS011;11614;52.494;6.976;2023-06-26T06:30:34;12.00;;;5.82;;
22894;SDS011;11614;52.494;6.976;2023-06-26T06:33:01;11.18;;;7.30;;
22894;SDS011;11614;52.494;6.976;2023-06-26T06:35:26;10.32;;;6.53;;
22894;SDS011;11614;52.494;6.976;2023-06-26T06:37:52;10.75;;;5.80;;
22894;SDS011;11614;52.494;6.976;2023-06-26T06:40:17;10.07;;;6.22;;
22894;SDS011;11614;52.494;6.976;2023-06-26T06:42:43;10.02;;;5.97;;
22894;SDS011;11614;52.494;6.976;2023-06-26T06:45:09;10.00;;;6.18;;
22894;SDS011;11614;52.494;6.976;2023-06-26T06:47:34;8.88;;;5.28;;
22894;SDS011;11614;52.494;6.976;2023-06-26T06:50:01;9.13;;;4.72;;
22894;SDS011;11614;52.494;6.976;2023-06-26T06:52:33;9.50;;;6.00;;
22894;SDS011;11614;52.494;6.976;2023-06-26T06:55:00;7.53;;;4.25;;
22894;SDS011;11614;52.494;6.976;2023-06-26T06:57:30;9.23;;;4.53;;
22894;SDS011;11614;52.494;6.976;2023-06-26T06:59:56;9.45;;;5.78;;
22894;SDS011;11614;52.494;6.976;2023-06-26T07:02:22;10.77;;;6.05;;
22894;SDS011;11614;52.494;6.976;2023-06-26T07:04:48;11.68;;;6.72;;
22894;SDS011;11614;52.494;6.976;2023-06-26T07:07:14;6.45;;;3.92;;
22894;SDS011;11614;52.494;6.976;2023-06-26T07:09:44;7.30;;;5.35;;
22894;SDS011;11614;52.494;6.976;2023-06-26T07:12:10;8.60;;;4.63;;
22894;SDS011;11614;52.494;6.976;2023-06-26T07:14:36;7.57;;;5.15;;
22894;SDS011;11614;52.494;6.976;2023-06-26T07:17:02;5.85;;;3.92;;
22894;SDS011;11614;52.494;6.976;2023-06-26T07:19:28;5.55;;;3.88;;
22894;SDS011;11614;52.494;6.976;2023-06-26T07:21:54;6.65;;;3.92;;
22894;SDS011;11614;52.494;6.976;2023-06-26T07:24:20;4.50;;;3.97;;
22894;SDS011;11614;52.494;6.976;2023-06-26T07:26:46;4.75;;;3.90;;
22894;SDS011;11614;52.494;6.976;2023-06-26T07:29:12;3.45;;;2.45;;
22894;SDS011;11614;52.494;6.976;2023-06-26T07:31:38;3.20;;;2.63;;
22894;SDS011;11614;52.494;6.976;2023-06-26T07:34:04;3.85;;;2.65;;
22894;SDS011;11614;52.494;6.976;2023-06-26T07:36:30;3.47;;;2.20;;
22894;SDS011;11614;52.494;6.976;2023-06-26T07:38:56;2.92;;;2.45;;
22894;SDS011;11614;52.494;6.976;2023-06-26T07:41:22;4.22;;;2.90;;
22894;SDS011;11614;52.494;6.976;2023-06-26T07:43:48;3.70;;;2.65;;
22894;SDS011;11614;52.494;6.976;2023-06-26T07:46:14;2.30;;;2.10;;
22894;SDS011;11614;52.494;6.976;2023-06-26T07:48:40;2.53;;;1.70;;
22894;SDS011;11614;52.494;6.976;2023-06-26T07:51:06;2.08;;;1.73;;
22894;SDS011;11614;52.494;6.976;2023-06-26T07:53:32;1.60;;;1.50;;
22894;SDS011;11614;52.494;6.976;2023-06-26T07:55:58;4.28;;;2.40;;
22894;SDS011;11614;52.494;6.976;2023-06-26T07:58:24;1.90;;;1.50;;
22894;SDS011;11614;52.494;6.976;2023-06-26T08:00:52;4.38;;;1.98;;
22894;SDS011;11614;52.494;6.976;2023-06-26T08:03:18;4.32;;;1.95;;
22894;SDS011;11614;52.494;6.976;2023-06-26T08:05:44;4.45;;;2.10;;
22894;SDS011;11614;52.494;6.976;2023-06-26T08:08:09;2.33;;;1.75;;
22894;SDS011;11614;52.494;6.976;2023-06-26T08:10:35;3.35;;;2.05;;
22894;SDS011;11614;52.494;6.976;2023-06-26T08:13:01;5.00;;;1.77;;
22894;SDS011;11614;52.494;6.976;2023-06-26T08:15:27;2.58;;;1.85;;
22894;SDS011;11614;52.494;6.976;2023-06-26T08:17:53;3.60;;;2.03;;
22894;SDS011;11614;52.494;6.976;2023-06-26T08:20:19;3.75;;;2.00;;
22894;SDS011;11614;52.494;6.976;2023-06-26T08:22:47;2.92;;;1.77;;
22894;SDS011;11614;52.494;6.976;2023-06-26T08:25:15;3.90;;;2.53;;
22894;SDS011;11614;52.494;6.976;2023-06-26T08:27:44;2.20;;;2.00;;
22894;SDS011;11614;52.494;6.976;2023-06-26T08:30:10;3.45;;;2.25;;
22894;SDS011;11614;52.494;6.976;2023-06-26T08:32:36;1.98;;;1.70;;
22894;SDS011;11614;52.494;6.976;2023-06-26T08:35:02;2.08;;;1.40;;
22894;SDS011;11614;52.494;6.976;2023-06-26T08:37:28;3.65;;;2.50;;
22894;SDS011;11614;52.494;6.976;2023-06-26T08:39:57;4.03;;;2.17;;
22894;SDS011;11614;52.494;6.976;2023-06-26T08:42:23;5.03;;;2.15;;
22894;SDS011;11614;52.494;6.976;2023-06-26T08:44:49;3.05;;;2.35;;
22894;SDS011;11614;52.494;6.976;2023-06-26T08:47:15;1.88;;;1.70;;
22894;SDS011;11614;52.494;6.976;2023-06-26T08:49:56;2.50;;;1.70;;
22894;SDS011;11614;52.494;6.976;2023-06-26T08:52:25;3.92;;;2.20;;
22894;SDS011;11614;52.494;6.976;2023-06-26T08:54:57;3.85;;;2.38;;
22894;SDS011;11614;52.494;6.976;2023-06-26T08:57:24;2.95;;;1.70;;
22894;SDS011;11614;52.494;6.976;2023-06-26T08:59:51;5.47;;;2.20;;
22894;SDS011;11614;52.494;6.976;2023-06-26T09:02:17;3.25;;;2.40;;
22894;SDS011;11614;52.494;6.976;2023-06-26T09:04:43;2.97;;;2.13;;
22894;SDS011;11614;52.494;6.976;2023-06-26T09:07:09;3.67;;;2.20;;
22894;SDS011;11614;52.494;6.976;2023-06-26T09:09:35;3.70;;;2.30;;
22894;SDS011;11614;52.494;6.976;2023-06-26T09:12:02;3.53;;;1.85;;
22894;SDS011;11614;52.494;6.976;2023-06-26T09:14:29;3.20;;;2.47;;
22894;SDS011;11614;52.494;6.976;2023-06-26T09:16:56;3.55;;;2.80;;
22894;SDS011;11614;52.494;6.976;2023-06-26T09:19:22;3.58;;;2.35;;
22894;SDS011;11614;52.494;6.976;2023-06-26T09:21:49;4.38;;;2.63;;
22894;SDS011;11614;52.494;6.976;2023-06-26T09:24:16;2.97;;;1.60;;
22894;SDS011;11614;52.494;6.976;2023-06-26T09:26:42;3.92;;;2.22;;
22894;SDS011;11614;52.494;6.976;2023-06-26T09:29:09;3.47;;;2.28;;
22894;SDS011;11614;52.494;6.976;2023-06-26T09:31:39;2.10;;;1.80;;
22894;SDS011;11614;52.494;6.976;2023-06-26T09:34:05;1.55;;;1.45;;
22894;SDS011;11614;52.494;6.976;2023-06-26T09:36:32;3.35;;;2.17;;
22894;SDS011;11614;52.494;6.976;2023-06-26T09:39:02;2.47;;;2.28;;
22894;SDS011;11614;52.494;6.976;2023-06-26T09:41:29;3.20;;;2.20;;
22894;SDS011;11614;52.494;6.976;2023-06-26T09:43:56;2.78;;;2.13;;
22894;SDS011;11614;52.494;6.976;2023-06-26T09:46:26;2.33;;;2.03;;
22894;SDS011;11614;52.494;6.976;2023-06-26T09:49:03;2.60;;;1.88;;
22894;SDS011;11614;52.494;6.976;2023-06-26T09:51:30;3.60;;;2.15;;
22894;SDS011;11614;52.494;6.976;2023-06-26T09:53:57;2.47;;;1.70;;
22894;SDS011;11614;52.494;6.976;2023-06-26T09:56:23;2.47;;;1.88;;
22894;SDS011;11614;52.494;6.976;2023-06-26T09:58:49;2.95;;;2.03;;
22894;SDS011;11614;52.494;6.976;2023-06-26T10:01:16;2.20;;;2.00;;
22894;SDS011;11614;52.494;6.976;2023-06-26T10:03:43;3.10;;;2.08;;
22894;SDS011;11614;52.494;6.976;2023-06-26T10:06:09;4.35;;;2.78;;
22894;SDS011;11614;52.494;6.976;2023-06-26T10:08:37;2.20;;;1.88;;
22894;SDS011;11614;52.494;6.976;2023-06-26T10:11:03;2.20;;;2.00;;
22894;SDS011;11614;52.494;6.976;2023-06-26T10:13:34;2.75;;;1.98;;
22894;SDS011;11614;52.494;6.976;2023-06-26T10:16:00;2.35;;;1.98;;
22894;SDS011;11614;52.494;6.976;2023-06-26T10:18:27;3.70;;;2.35;;
22894;SDS011;11614;52.494;6.976;2023-06-26T10:20:53;4.50;;;2.25;;
22894;SDS011;11614;52.494;6.976;2023-06-26T10:23:20;5.55;;;2.70;;
22894;SDS011;11614;52.494;6.976;2023-06-26T10:25:48;3.20;;;1.92;;
22894;SDS011;11614;52.494;6.976;2023-06-26T10:28:14;3.70;;;2.35;;
22894;SDS011;11614;52.494;6.976;2023-06-26T10:30:40;2.58;;;2.38;;
22894;SDS011;11614;52.494;6.976;2023-06-26T10:33:08;3.63;;;2.30;;
22894;SDS011;11614;52.494;6.976;2023-06-26T10:35:40;4.90;;;2.38;;
22894;SDS011;11614;52.494;6.976;2023-06-26T10:38:06;2.58;;;1.80;;
22894;SDS011;11614;52.494;6.976;2023-06-26T10:40:43;3.35;;;2.45;;
22894;SDS011;11614;52.494;6.976;2023-06-26T10:43:10;4.00;;;2.55;;
22894;SDS011;11614;52.494;6.976;2023-06-26T10:45:37;3.35;;;2.22;;
22894;SDS011;11614;52.494;6.976;2023-06-26T10:48:03;2.78;;;1.75;;
22894;SDS011;11614;52.494;6.976;2023-06-26T10:50:32;2.88;;;2.42;;
22894;SDS011;11614;52.494;6.976;2023-06-26T10:55:34;3.35;;;1.80;;
22894;SDS011;11614;52.494;6.976;2023-06-26T10:58:01;4.45;;;2.03;;
22894;SDS011;11614;52.494;6.976;2023-06-26T11:00:27;2.60;;;2.40;;
22894;SDS011;11614;52.494;6.976;2023-06-26T11:02:54;2.65;;;2.28;;
22894;SDS011;11614;52.494;6.976;2023-06-26T11:05:25;3.28;;;2.53;;
22894;SDS011;11614;52.494;6.976;2023-06-26T11:08:07;3.45;;;2.55;;
22894;SDS011;11614;52.494;6.976;2023-06-26T11:13:16;3.70;;;2.28;;
22894;SDS011;11614;52.494;6.976;2023-06-26T11:15:43;2.80;;;2.28;;
22894;SDS011;11614;52.494;6.976;2023-06-26T11:18:12;2.53;;;2.33;;
22894;SDS011;11614;52.494;6.976;2023-06-26T11:20:39;3.65;;;1.85;;
22894;SDS011;11614;52.494;6.976;2023-06-26T11:23:05;2.28;;;2.08;;
22894;SDS011;11614;52.494;6.976;2023-06-26T11:25:37;3.13;;;2.45;;
22894;SDS011;11614;52.494;6.976;2023-06-26T11:28:09;4.10;;;2.88;;
22894;SDS011;11614;52.494;6.976;2023-06-26T11:30:36;4.63;;;2.25;;
22894;SDS011;11614;52.494;6.976;2023-06-26T11:33:10;2.95;;;2.22;;
22894;SDS011;11614;52.494;6.976;2023-06-26T11:35:37;2.67;;;1.98;;
22894;SDS011;11614;52.494;6.976;2023-06-26T11:38:03;2.60;;;1.75;;
22894;SDS011;11614;52.494;6.976;2023-06-26T11:40:30;5.35;;;1.70;;
22894;SDS011;11614;52.494;6.976;2023-06-26T11:42:57;2.40;;;1.73;;
22894;SDS011;11614;52.494;6.976;2023-06-26T11:45:24;3.47;;;1.67;;
22894;SDS011;11614;52.494;6.976;2023-06-26T11:47:50;3.17;;;2.10;;
22894;SDS011;11614;52.494;6.976;2023-06-26T11:50:16;1.42;;;1.33;;
22894;SDS011;11614;52.494;6.976;2023-06-26T11:52:43;3.05;;;2.22;;
22894;SDS011;11614;52.494;6.976;2023-06-26T11:55:09;2.13;;;1.92;;
22894;SDS011;11614;52.494;6.976;2023-06-26T11:57:35;2.90;;;1.45;;
22894;SDS011;11614;52.494;6.976;2023-06-26T12:00:14;2.47;;;1.90;;
22894;SDS011;11614;52.494;6.976;2023-06-26T12:02:41;2.85;;;1.10;;
22894;SDS011;11614;52.494;6.976;2023-06-26T12:05:07;2.22;;;1.40;;
22894;SDS011;11614;52.494;6.976;2023-06-26T12:07:33;2.90;;;1.70;;
22894;SDS011;11614;52.494;6.976;2023-06-26T12:10:01;4.35;;;2.30;;
22894;SDS011;11614;52.494;6.976;2023-06-26T12:12:27;3.15;;;1.73;;
22894;SDS011;11614;52.494;6.976;2023-06-26T12:14:53;2.03;;;1.70;;
22894;SDS011;11614;52.494;6.976;2023-06-26T12:17:22;2.17;;;1.60;;
22894;SDS011;11614;52.494;6.976;2023-06-26T12:19:48;1.67;;;1.50;;
22894;SDS011;11614;52.494;6.976;2023-06-26T12:22:15;3.42;;;1.73;;
22894;SDS011;11614;52.494;6.976;2023-06-26T12:24:41;2.58;;;2.10;;
22894;SDS011;11614;52.494;6.976;2023-06-26T12:27:09;2.17;;;1.70;;
22894;SDS011;11614;52.494;6.976;2023-06-26T12:29:36;2.83;;;1.83;;
22894;SDS011;11614;52.494;6.976;2023-06-26T12:32:02;1.70;;;1.60;;
22894;SDS011;11614;52.494;6.976;2023-06-26T12:34:29;2.83;;;1.63;;
22894;SDS011;11614;52.494;6.976;2023-06-26T12:36:59;1.77;;;1.67;;
22894;SDS011;11614;52.494;6.976;2023-06-26T12:39:25;1.95;;;1.73;;
22894;SDS011;11614;52.494;6.976;2023-06-26T12:41:56;2.13;;;1.75;;
22894;SDS011;11614;52.494;6.976;2023-06-26T12:44:26;1.20;;;1.10;;
22894;SDS011;11614;52.494;6.976;2023-06-26T12:46:59;2.28;;;1.60;;
22894;SDS011;11614;52.494;6.976;2023-06-26T12:49:37;4.40;;;2.00;;
22894;SDS011;11614;52.494;6.976;2023-06-26T12:52:04;1.88;;;1.50;;
22894;SDS011;11614;52.494;6.976;2023-06-26T12:54:30;1.33;;;1.10;;
22894;SDS011;11614;52.494;6.976;2023-06-26T12:56:57;1.70;;;1.17;;
22894;SDS011;11614;52.494;6.976;2023-06-26T12:59:23;2.35;;;1.30;;
22894;SDS011;11614;52.494;6.976;2023-06-26T13:01:49;1.35;;;1.17;;
22894;SDS011;11614;52.494;6.976;2023-06-26T13:04:15;2.53;;;1.55;;
22894;SDS011;11614;52.494;6.976;2023-06-26T13:06:41;1.50;;;0.80;;
22894;SDS011;11614;52.494;6.976;2023-06-26T13:09:08;2.85;;;1.10;;
22894;SDS011;11614;52.494;6.976;2023-06-26T13:11:33;1.85;;;1.60;;
22894;SDS011;11614;52.494;6.976;2023-06-26T13:14:01;3.15;;;1.20;;
22894;SDS011;11614;52.494;6.976;2023-06-26T13:16:27;3.05;;;1.33;;
22894;SDS011;11614;52.494;6.976;2023-06-26T13:18:53;3.63;;;1.30;;
22894;SDS011;11614;52.494;6.976;2023-06-26T13:21:19;3.13;;;0.93;;
22894;SDS011;11614;52.494;6.976;2023-06-26T13:23:45;1.52;;;0.90;;
22894;SDS011;11614;52.494;6.976;2023-06-26T13:26:11;2.53;;;1.35;;
22894;SDS011;11614;52.494;6.976;2023-06-26T13:28:37;2.45;;;1.30;;
22894;SDS011;11614;52.494;6.976;2023-06-26T13:31:03;4.13;;;1.35;;
22894;SDS011;11614;52.494;6.976;2023-06-26T13:33:30;3.35;;;1.17;;
22894;SDS011;11614;52.494;6.976;2023-06-26T13:35:56;2.55;;;1.45;;
22894;SDS011;11614;52.494;6.976;2023-06-26T13:38:22;2.55;;;1.08;;
22894;SDS011;11614;52.494;6.976;2023-06-26T13:40:54;1.85;;;1.17;;
22894;SDS011;11614;52.494;6.976;2023-06-26T13:43:22;0.73;;;0.70;;
22894;SDS011;11614;52.494;6.976;2023-06-26T13:45:48;1.50;;;1.38;;
22894;SDS011;11614;52.494;6.976;2023-06-26T13:48:15;1.13;;;0.82;;
22894;SDS011;11614;52.494;6.976;2023-06-26T13:50:41;1.58;;;0.65;;
22894;SDS011;11614;52.494;6.976;2023-06-26T13:53:07;3.60;;;1.05;;
22894;SDS011;11614;52.494;6.976;2023-06-26T13:55:34;3.28;;;1.45;;
22894;SDS011;11614;52.494;6.976;2023-06-26T13:58:00;2.38;;;1.52;;
22894;SDS011;11614;52.494;6.976;2023-06-26T14:00:30;3.03;;;1.35;;
22894;SDS011;11614;52.494;6.976;2023-06-26T14:02:56;1.88;;;1.40;;
22894;SDS011;11614;52.494;6.976;2023-06-26T14:05:22;2.80;;;1.67;;
22894;SDS011;11614;52.494;6.976;2023-06-26T14:07:48;1.38;;;1.27;;
22894;SDS011;11614;52.494;6.976;2023-06-26T14:10:14;1.98;;;1.25;;
22894;SDS011;11614;52.494;6.976;2023-06-26T14:12:41;3.38;;;1.30;;
22894;SDS011;11614;52.494;6.976;2023-06-26T14:15:07;1.27;;;1.15;;
22894;SDS011;11614;52.494;6.976;2023-06-26T14:17:33;1.63;;;1.40;;
22894;SDS011;11614;52.494;6.976;2023-06-26T14:19:59;2.03;;;1.60;;
22894;SDS011;11614;52.494;6.976;2023-06-26T14:22:25;1.83;;;1.33;;
22894;SDS011;11614;52.494;6.976;2023-06-26T14:24:51;3.05;;;1.63;;
22894;SDS011;11614;52.494;6.976;2023-06-26T14:27:17;1.23;;;0.90;;
22894;SDS011;11614;52.494;6.976;2023-06-26T14:29:43;1.95;;;1.30;;
22894;SDS011;11614;52.494;6.976;2023-06-26T14:32:09;1.80;;;1.50;;
22894;SDS011;11614;52.494;6.976;2023-06-26T14:34:35;2.25;;;1.85;;
22894;SDS011;11614;52.494;6.976;2023-06-26T14:37:01;4.50;;;2.08;;
22894;SDS011;11614;52.494;6.976;2023-06-26T14:39:27;2.47;;;2.10;;
22894;SDS011;11614;52.494;6.976;2023-06-26T14:41:53;1.80;;;1.65;;
22894;SDS011;11614;52.494;6.976;2023-06-26T14:44:19;2.03;;;1.80;;